< < Back
Terminal Aerodrome Forecast


Current Version              Previous Versions:   1  2  3  4  5  6  7  8  9  

Terminal Aerodrome Forecast

151
FTUS42 KGSP 271443 AAB
TAFGSP
TAF AMD
KGSP 271443Z 2715/2812 05009KT P6SM SCT025 BKN040
      TEMPO 2715/2717 05012G17KT BKN025
     FM271700 03008KT P6SM SCT040
     FM272000 05007KT P6SM BKN050
     FM280600 04004KT P6SM FEW017 BKN050=



Latest METAR

302
SAUS70 KWBC 280200 RRB
MTRGSP
METAR KGSP 280153Z 36004KT 10SM SCT095 24/17 A3009 RMK AO2 SLP178
T02390167


USA.gov is the U.S. government's official web portal to all federal, state and local government web resources and services.